sensor_id;sensor_type;location;lat;lon;timestamp;P1;durP1;ratioP1;P2;durP2;ratioP2
56373;SDS011;58212;47.034;7.376;2023-09-18T00:01:50;5.80;;;3.22;;
56373;SDS011;58212;47.034;7.376;2023-09-18T00:04:17;6.82;;;3.08;;
56373;SDS011;58212;47.034;7.376;2023-09-18T00:06:43;5.60;;;3.10;;
56373;SDS011;58212;47.034;7.376;2023-09-18T00:09:10;5.07;;;3.42;;
56373;SDS011;58212;47.034;7.376;2023-09-18T00:11:39;5.28;;;3.22;;
56373;SDS011;58212;47.034;7.376;2023-09-18T00:14:05;6.65;;;3.50;;
56373;SDS011;58212;47.034;7.376;2023-09-18T00:16:34;4.30;;;2.90;;
56373;SDS011;58212;47.034;7.376;2023-09-18T00:19:01;8.10;;;4.13;;
56373;SDS011;58212;47.034;7.376;2023-09-18T00:21:28;6.53;;;3.15;;
56373;SDS011;58212;47.034;7.376;2023-09-18T00:23:56;6.97;;;2.72;;
56373;SDS011;58212;47.034;7.376;2023-09-18T00:26:24;4.10;;;2.95;;
56373;SDS011;58212;47.034;7.376;2023-09-18T00:28:52;4.28;;;3.40;;
56373;SDS011;58212;47.034;7.376;2023-09-18T00:31:18;4.22;;;3.25;;
56373;SDS011;58212;47.034;7.376;2023-09-18T00:33:48;5.38;;;3.45;;
56373;SDS011;58212;47.034;7.376;2023-09-18T00:36:15;5.10;;;3.35;;
56373;SDS011;58212;47.034;7.376;2023-09-18T00:38:41;3.88;;;3.30;;
56373;SDS011;58212;47.034;7.376;2023-09-18T00:41:11;6.40;;;3.40;;
56373;SDS011;58212;47.034;7.376;2023-09-18T00:43:40;4.75;;;3.10;;
56373;SDS011;58212;47.034;7.376;2023-09-18T00:46:07;5.10;;;2.90;;
56373;SDS011;58212;47.034;7.376;2023-09-18T00:48:34;6.43;;;3.00;;
56373;SDS011;58212;47.034;7.376;2023-09-18T00:51:03;5.57;;;3.50;;
56373;SDS011;58212;47.034;7.376;2023-09-18T00:53:30;5.70;;;3.33;;
56373;SDS011;58212;47.034;7.376;2023-09-18T00:55:57;5.75;;;3.60;;
56373;SDS011;58212;47.034;7.376;2023-09-18T00:58:26;7.95;;;3.10;;
56373;SDS011;58212;47.034;7.376;2023-09-18T01:00:53;5.47;;;3.13;;
56373;SDS011;58212;47.034;7.376;2023-09-18T01:03:20;4.75;;;2.95;;
56373;SDS011;58212;47.034;7.376;2023-09-18T01:05:50;6.10;;;3.85;;
56373;SDS011;58212;47.034;7.376;2023-09-18T01:08:18;3.65;;;3.30;;
56373;SDS011;58212;47.034;7.376;2023-09-18T01:10:47;4.43;;;3.03;;
56373;SDS011;58212;47.034;7.376;2023-09-18T01:13:23;5.15;;;3.17;;
56373;SDS011;58212;47.034;7.376;2023-09-18T01:15:57;7.18;;;3.53;;
56373;SDS011;58212;47.034;7.376;2023-09-18T01:18:34;4.15;;;3.25;;
56373;SDS011;58212;47.034;7.376;2023-09-18T01:21:00;4.30;;;3.13;;
56373;SDS011;58212;47.034;7.376;2023-09-18T01:23:28;5.70;;;3.00;;
56373;SDS011;58212;47.034;7.376;2023-09-18T01:25:55;4.22;;;3.17;;
56373;SDS011;58212;47.034;7.376;2023-09-18T01:28:22;9.70;;;3.42;;
56373;SDS011;58212;47.034;7.376;2023-09-18T01:30:49;4.13;;;3.22;;
56373;SDS011;58212;47.034;7.376;2023-09-18T01:33:16;5.10;;;3.17;;
56373;SDS011;58212;47.034;7.376;2023-09-18T01:35:45;5.60;;;3.70;;
56373;SDS011;58212;47.034;7.376;2023-09-18T01:38:12;6.50;;;2.95;;
56373;SDS011;58212;47.034;7.376;2023-09-18T01:40:41;6.20;;;3.20;;
56373;SDS011;58212;47.034;7.376;2023-09-18T01:43:08;6.07;;;3.42;;
56373;SDS011;58212;47.034;7.376;2023-09-18T01:45:35;4.28;;;3.17;;
56373;SDS011;58212;47.034;7.376;2023-09-18T01:48:04;5.70;;;2.67;;
56373;SDS011;58212;47.034;7.376;2023-09-18T01:50:32;5.82;;;3.42;;
56373;SDS011;58212;47.034;7.376;2023-09-18T01:52:59;5.10;;;4.10;;
56373;SDS011;58212;47.034;7.376;2023-09-18T01:55:25;5.95;;;4.07;;
56373;SDS011;58212;47.034;7.376;2023-09-18T01:57:55;6.85;;;4.15;;
56373;SDS011;58212;47.034;7.376;2023-09-18T02:00:22;8.73;;;4.28;;
56373;SDS011;58212;47.034;7.376;2023-09-18T02:02:49;8.30;;;5.00;;
56373;SDS011;58212;47.034;7.376;2023-09-18T02:05:15;6.13;;;4.22;;
56373;SDS011;58212;47.034;7.376;2023-09-18T02:07:42;4.50;;;3.78;;
56373;SDS011;58212;47.034;7.376;2023-09-18T02:10:09;5.78;;;4.00;;
56373;SDS011;58212;47.034;7.376;2023-09-18T02:12:37;5.40;;;3.78;;
56373;SDS011;58212;47.034;7.376;2023-09-18T02:15:07;7.97;;;3.88;;
56373;SDS011;58212;47.034;7.376;2023-09-18T02:17:36;5.82;;;4.00;;
56373;SDS011;58212;47.034;7.376;2023-09-18T02:20:03;6.20;;;3.95;;
56373;SDS011;58212;47.034;7.376;2023-09-18T02:22:36;6.32;;;4.10;;
56373;SDS011;58212;47.034;7.376;2023-09-18T02:25:05;7.30;;;3.72;;
56373;SDS011;58212;47.034;7.376;2023-09-18T02:27:33;9.73;;;3.83;;
56373;SDS011;58212;47.034;7.376;2023-09-18T02:30:00;5.18;;;3.45;;
56373;SDS011;58212;47.034;7.376;2023-09-18T02:32:28;7.00;;;4.13;;
56373;SDS011;58212;47.034;7.376;2023-09-18T02:34:55;6.32;;;3.72;;
56373;SDS011;58212;47.034;7.376;2023-09-18T02:37:22;11.63;;;4.43;;
56373;SDS011;58212;47.034;7.376;2023-09-18T02:39:49;4.85;;;3.78;;
56373;SDS011;58212;47.034;7.376;2023-09-18T02:42:16;7.95;;;3.90;;
56373;SDS011;58212;47.034;7.376;2023-09-18T02:44:42;7.93;;;3.97;;
56373;SDS011;58212;47.034;7.376;2023-09-18T02:47:09;8.30;;;4.15;;
56373;SDS011;58212;47.034;7.376;2023-09-18T02:49:37;6.97;;;3.63;;
56373;SDS011;58212;47.034;7.376;2023-09-18T02:52:04;6.05;;;4.38;;
56373;SDS011;58212;47.034;7.376;2023-09-18T02:54:31;7.70;;;3.85;;
56373;SDS011;58212;47.034;7.376;2023-09-18T02:56:58;8.25;;;4.63;;
56373;SDS011;58212;47.034;7.376;2023-09-18T02:59:25;8.25;;;4.82;;
56373;SDS011;58212;47.034;7.376;2023-09-18T03:01:52;6.82;;;4.55;;
56373;SDS011;58212;47.034;7.376;2023-09-18T03:04:19;9.90;;;4.70;;
56373;SDS011;58212;47.034;7.376;2023-09-18T03:06:47;7.20;;;4.57;;
56373;SDS011;58212;47.034;7.376;2023-09-18T03:09:15;6.97;;;4.80;;
56373;SDS011;58212;47.034;7.376;2023-09-18T03:11:42;5.95;;;4.38;;
56373;SDS011;58212;47.034;7.376;2023-09-18T03:14:09;8.70;;;4.40;;
56373;SDS011;58212;47.034;7.376;2023-09-18T03:16:36;6.88;;;4.50;;
56373;SDS011;58212;47.034;7.376;2023-09-18T03:19:04;5.90;;;4.20;;
56373;SDS011;58212;47.034;7.376;2023-09-18T03:21:32;11.05;;;4.75;;
56373;SDS011;58212;47.034;7.376;2023-09-18T03:24:02;7.30;;;4.60;;
56373;SDS011;58212;47.034;7.376;2023-09-18T03:26:29;9.32;;;4.25;;
56373;SDS011;58212;47.034;7.376;2023-09-18T03:28:56;6.88;;;4.22;;
56373;SDS011;58212;47.034;7.376;2023-09-18T03:31:25;5.43;;;3.78;;
56373;SDS011;58212;47.034;7.376;2023-09-18T03:33:52;9.20;;;4.10;;
56373;SDS011;58212;47.034;7.376;2023-09-18T03:36:20;6.88;;;4.15;;
56373;SDS011;58212;47.034;7.376;2023-09-18T03:38:48;11.70;;;4.53;;
56373;SDS011;58212;47.034;7.376;2023-09-18T03:41:16;6.82;;;3.95;;
56373;SDS011;58212;47.034;7.376;2023-09-18T03:43:43;6.45;;;3.90;;
56373;SDS011;58212;47.034;7.376;2023-09-18T03:46:10;7.68;;;3.80;;
56373;SDS011;58212;47.034;7.376;2023-09-18T03:48:48;8.38;;;4.05;;
56373;SDS011;58212;47.034;7.376;2023-09-18T03:51:17;7.95;;;4.22;;
56373;SDS011;58212;47.034;7.376;2023-09-18T03:53:44;6.07;;;4.30;;
56373;SDS011;58212;47.034;7.376;2023-09-18T03:56:18;7.18;;;4.38;;
56373;SDS011;58212;47.034;7.376;2023-09-18T03:58:45;7.22;;;4.35;;
56373;SDS011;58212;47.034;7.376;2023-09-18T04:01:15;7.95;;;4.30;;
56373;SDS011;58212;47.034;7.376;2023-09-18T04:03:42;7.88;;;4.43;;
56373;SDS011;58212;47.034;7.376;2023-09-18T04:06:10;5.03;;;4.10;;
56373;SDS011;58212;47.034;7.376;2023-09-18T04:08:36;8.52;;;4.43;;
56373;SDS011;58212;47.034;7.376;2023-09-18T04:11:03;8.02;;;4.15;;
56373;SDS011;58212;47.034;7.376;2023-09-18T04:13:31;8.68;;;4.32;;
56373;SDS011;58212;47.034;7.376;2023-09-18T04:15:59;8.07;;;4.15;;
56373;SDS011;58212;47.034;7.376;2023-09-18T04:18:29;6.22;;;3.63;;
56373;SDS011;58212;47.034;7.376;2023-09-18T04:20:57;7.95;;;4.18;;
56373;SDS011;58212;47.034;7.376;2023-09-18T04:23:24;11.15;;;4.03;;
56373;SDS011;58212;47.034;7.376;2023-09-18T04:25:52;7.28;;;4.07;;
56373;SDS011;58212;47.034;7.376;2023-09-18T04:28:21;5.68;;;3.95;;
56373;SDS011;58212;47.034;7.376;2023-09-18T04:30:50;6.07;;;3.67;;
56373;SDS011;58212;47.034;7.376;2023-09-18T04:33:17;6.78;;;4.93;;
56373;SDS011;58212;47.034;7.376;2023-09-18T04:35:46;6.93;;;4.50;;
56373;SDS011;58212;47.034;7.376;2023-09-18T04:38:13;8.25;;;4.60;;
56373;SDS011;58212;47.034;7.376;2023-09-18T04:40:41;7.38;;;4.28;;
56373;SDS011;58212;47.034;7.376;2023-09-18T04:43:07;6.07;;;3.85;;
56373;SDS011;58212;47.034;7.376;2023-09-18T04:45:35;6.53;;;4.97;;
56373;SDS011;58212;47.034;7.376;2023-09-18T04:48:03;7.82;;;5.43;;
56373;SDS011;58212;47.034;7.376;2023-09-18T04:50:32;7.13;;;4.97;;
56373;SDS011;58212;47.034;7.376;2023-09-18T04:52:59;7.57;;;5.55;;
56373;SDS011;58212;47.034;7.376;2023-09-18T04:55:27;8.50;;;5.55;;
56373;SDS011;58212;47.034;7.376;2023-09-18T04:57:53;7.68;;;5.35;;
56373;SDS011;58212;47.034;7.376;2023-09-18T05:00:21;8.75;;;5.53;;
56373;SDS011;58212;47.034;7.376;2023-09-18T05:02:50;7.88;;;4.88;;
56373;SDS011;58212;47.034;7.376;2023-09-18T05:05:18;8.63;;;4.82;;
56373;SDS011;58212;47.034;7.376;2023-09-18T05:07:46;9.52;;;5.28;;
56373;SDS011;58212;47.034;7.376;2023-09-18T05:10:12;9.93;;;6.00;;
56373;SDS011;58212;47.034;7.376;2023-09-18T05:12:39;14.02;;;6.53;;
56373;SDS011;58212;47.034;7.376;2023-09-18T05:15:07;10.63;;;6.30;;
56373;SDS011;58212;47.034;7.376;2023-09-18T05:17:42;9.50;;;4.72;;
56373;SDS011;58212;47.034;7.376;2023-09-18T05:20:10;13.15;;;6.40;;
56373;SDS011;58212;47.034;7.376;2023-09-18T05:22:43;10.38;;;5.40;;
56373;SDS011;58212;47.034;7.376;2023-09-18T05:25:10;11.55;;;5.53;;
56373;SDS011;58212;47.034;7.376;2023-09-18T05:27:37;9.93;;;4.75;;
56373;SDS011;58212;47.034;7.376;2023-09-18T05:30:12;11.45;;;5.00;;
56373;SDS011;58212;47.034;7.376;2023-09-18T05:32:44;7.93;;;5.10;;
56373;SDS011;58212;47.034;7.376;2023-09-18T05:35:10;8.05;;;5.47;;
56373;SDS011;58212;47.034;7.376;2023-09-18T05:37:38;10.55;;;5.30;;
56373;SDS011;58212;47.034;7.376;2023-09-18T05:40:07;7.03;;;4.95;;
56373;SDS011;58212;47.034;7.376;2023-09-18T05:42:36;7.78;;;4.60;;
56373;SDS011;58212;47.034;7.376;2023-09-18T05:45:03;8.27;;;4.30;;
56373;SDS011;58212;47.034;7.376;2023-09-18T05:47:31;7.80;;;4.85;;
56373;SDS011;58212;47.034;7.376;2023-09-18T05:49:58;9.90;;;3.90;;
56373;SDS011;58212;47.034;7.376;2023-09-18T05:52:25;10.00;;;3.75;;
56373;SDS011;58212;47.034;7.376;2023-09-18T05:54:52;8.25;;;3.50;;
56373;SDS011;58212;47.034;7.376;2023-09-18T05:57:21;8.75;;;3.33;;
56373;SDS011;58212;47.034;7.376;2023-09-18T05:59:48;8.05;;;3.28;;
56373;SDS011;58212;47.034;7.376;2023-09-18T06:02:16;9.02;;;3.65;;
56373;SDS011;58212;47.034;7.376;2023-09-18T06:04:42;10.27;;;3.78;;
56373;SDS011;58212;47.034;7.376;2023-09-18T06:07:09;6.70;;;3.45;;
56373;SDS011;58212;47.034;7.376;2023-09-18T06:09:38;9.35;;;3.40;;
56373;SDS011;58212;47.034;7.376;2023-09-18T06:12:04;7.18;;;3.72;;
56373;SDS011;58212;47.034;7.376;2023-09-18T06:14:59;7.90;;;3.90;;
56373;SDS011;58212;47.034;7.376;2023-09-18T06:17:26;7.55;;;3.20;;
56373;SDS011;58212;47.034;7.376;2023-09-18T06:19:52;8.30;;;3.88;;
56373;SDS011;58212;47.034;7.376;2023-09-18T06:22:20;10.15;;;3.90;;
56373;SDS011;58212;47.034;7.376;2023-09-18T06:24:48;6.95;;;3.90;;
56373;SDS011;58212;47.034;7.376;2023-09-18T06:27:14;6.80;;;3.22;;
56373;SDS011;58212;47.034;7.376;2023-09-18T06:29:41;6.95;;;2.80;;
56373;SDS011;58212;47.034;7.376;2023-09-18T06:32:09;4.70;;;2.40;;
56373;SDS011;58212;47.034;7.376;2023-09-18T06:34:36;4.82;;;2.50;;
56373;SDS011;58212;47.034;7.376;2023-09-18T06:37:03;5.53;;;2.45;;
56373;SDS011;58212;47.034;7.376;2023-09-18T06:39:31;4.40;;;2.75;;
56373;SDS011;58212;47.034;7.376;2023-09-18T06:41:58;5.60;;;2.85;;
56373;SDS011;58212;47.034;7.376;2023-09-18T06:44:27;5.47;;;2.80;;
56373;SDS011;58212;47.034;7.376;2023-09-18T06:46:53;3.70;;;2.50;;
56373;SDS011;58212;47.034;7.376;2023-09-18T06:49:21;4.88;;;2.42;;
56373;SDS011;58212;47.034;7.376;2023-09-18T06:51:48;6.45;;;2.28;;
56373;SDS011;58212;47.034;7.376;2023-09-18T06:54:14;4.55;;;1.98;;
56373;SDS011;58212;47.034;7.376;2023-09-18T06:56:42;3.28;;;1.88;;
56373;SDS011;58212;47.034;7.376;2023-09-18T06:59:09;4.70;;;2.13;;
56373;SDS011;58212;47.034;7.376;2023-09-18T07:01:37;3.72;;;1.63;;
56373;SDS011;58212;47.034;7.376;2023-09-18T07:04:06;3.53;;;1.77;;
56373;SDS011;58212;47.034;7.376;2023-09-18T07:06:34;6.55;;;1.88;;
56373;SDS011;58212;47.034;7.376;2023-09-18T07:09:00;2.47;;;1.45;;
56373;SDS011;58212;47.034;7.376;2023-09-18T07:11:28;4.97;;;1.85;;
56373;SDS011;58212;47.034;7.376;2023-09-18T07:13:56;3.33;;;1.42;;
56373;SDS011;58212;47.034;7.376;2023-09-18T07:16:22;4.45;;;1.35;;
56373;SDS011;58212;47.034;7.376;2023-09-18T07:18:49;6.05;;;1.70;;
56373;SDS011;58212;47.034;7.376;2023-09-18T07:21:16;2.63;;;1.65;;
56373;SDS011;58212;47.034;7.376;2023-09-18T07:23:45;4.97;;;1.30;;
56373;SDS011;58212;47.034;7.376;2023-09-18T07:26:12;5.30;;;1.50;;
56373;SDS011;58212;47.034;7.376;2023-09-18T07:28:40;3.17;;;1.73;;
56373;SDS011;58212;47.034;7.376;2023-09-18T07:31:07;4.70;;;1.70;;
56373;SDS011;58212;47.034;7.376;2023-09-18T07:33:37;3.03;;;1.40;;
56373;SDS011;58212;47.034;7.376;2023-09-18T07:36:04;2.78;;;1.05;;
56373;SDS011;58212;47.034;7.376;2023-09-18T07:38:31;3.03;;;1.38;;
56373;SDS011;58212;47.034;7.376;2023-09-18T07:40:59;5.13;;;1.30;;
56373;SDS011;58212;47.034;7.376;2023-09-18T07:43:26;5.82;;;1.60;;
56373;SDS011;58212;47.034;7.376;2023-09-18T07:45:53;2.25;;;1.20;;
56373;SDS011;58212;47.034;7.376;2023-09-18T07:48:22;3.38;;;1.63;;
56373;SDS011;58212;47.034;7.376;2023-09-18T07:50:48;3.55;;;1.83;;
56373;SDS011;58212;47.034;7.376;2023-09-18T07:53:15;3.63;;;1.50;;
56373;SDS011;58212;47.034;7.376;2023-09-18T07:55:42;1.90;;;1.30;;
56373;SDS011;58212;47.034;7.376;2023-09-18T07:58:25;3.47;;;1.38;;
56373;SDS011;58212;47.034;7.376;2023-09-18T08:00:53;2.40;;;1.33;;
56373;SDS011;58212;47.034;7.376;2023-09-18T08:03:20;6.85;;;1.75;;
56373;SDS011;58212;47.034;7.376;2023-09-18T08:05:49;3.28;;;1.55;;
56373;SDS011;58212;47.034;7.376;2023-09-18T08:08:19;3.90;;;1.33;;
56373;SDS011;58212;47.034;7.376;2023-09-18T08:10:47;3.78;;;1.00;;
56373;SDS011;58212;47.034;7.376;2023-09-18T08:13:14;2.45;;;1.10;;
56373;SDS011;58212;47.034;7.376;2023-09-18T08:15:42;2.40;;;1.25;;
56373;SDS011;58212;47.034;7.376;2023-09-18T08:18:09;4.15;;;1.27;;
56373;SDS011;58212;47.034;7.376;2023-09-18T08:20:39;3.10;;;1.20;;
56373;SDS011;58212;47.034;7.376;2023-09-18T08:23:08;3.13;;;1.55;;
56373;SDS011;58212;47.034;7.376;2023-09-18T08:25:35;4.15;;;1.63;;
56373;SDS011;58212;47.034;7.376;2023-09-18T08:28:02;2.22;;;1.10;;
56373;SDS011;58212;47.034;7.376;2023-09-18T08:30:31;3.92;;;1.30;;
56373;SDS011;58212;47.034;7.376;2023-09-18T08:32:58;2.50;;;1.23;;
56373;SDS011;58212;47.034;7.376;2023-09-18T08:35:27;3.05;;;1.40;;
56373;SDS011;58212;47.034;7.376;2023-09-18T08:37:55;3.85;;;1.13;;
56373;SDS011;58212;47.034;7.376;2023-09-18T08:40:22;2.03;;;1.40;;
56373;SDS011;58212;47.034;7.376;2023-09-18T08:42:51;2.92;;;1.58;;
56373;SDS011;58212;47.034;7.376;2023-09-18T08:45:21;2.25;;;1.30;;
56373;SDS011;58212;47.034;7.376;2023-09-18T08:47:49;2.53;;;1.30;;
56373;SDS011;58212;47.034;7.376;2023-09-18T08:50:19;3.42;;;1.70;;
56373;SDS011;58212;47.034;7.376;2023-09-18T08:52:46;4.05;;;1.40;;
56373;SDS011;58212;47.034;7.376;2023-09-18T08:55:15;3.75;;;1.25;;
56373;SDS011;58212;47.034;7.376;2023-09-18T08:57:42;3.38;;;1.50;;
56373;SDS011;58212;47.034;7.376;2023-09-18T09:00:12;3.08;;;1.33;;
56373;SDS011;58212;47.034;7.376;2023-09-18T09:02:42;4.78;;;1.65;;
56373;SDS011;58212;47.034;7.376;2023-09-18T09:05:09;3.90;;;1.63;;
56373;SDS011;58212;47.034;7.376;2023-09-18T09:07:38;3.55;;;1.75;;
56373;SDS011;58212;47.034;7.376;2023-09-18T09:10:05;5.25;;;1.58;;
56373;SDS011;58212;47.034;7.376;2023-09-18T09:12:52;3.47;;;1.73;;
56373;SDS011;58212;47.034;7.376;2023-09-18T09:15:20;5.25;;;1.90;;
56373;SDS011;58212;47.034;7.376;2023-09-18T09:17:47;3.67;;;1.73;;
56373;SDS011;58212;47.034;7.376;2023-09-18T09:20:15;4.47;;;1.60;;
56373;SDS011;58212;47.034;7.376;2023-09-18T09:22:45;3.65;;;1.83;;
56373;SDS011;58212;47.034;7.376;2023-09-18T09:25:25;3.88;;;1.58;;
56373;SDS011;58212;47.034;7.376;2023-09-18T09:27:52;4.32;;;1.20;;
56373;SDS011;58212;47.034;7.376;2023-09-18T09:30:20;3.90;;;1.50;;
56373;SDS011;58212;47.034;7.376;2023-09-18T09:32:49;4.40;;;1.40;;
56373;SDS011;58212;47.034;7.376;2023-09-18T09:35:23;3.50;;;1.38;;
56373;SDS011;58212;47.034;7.376;2023-09-18T09:37:56;3.53;;;1.48;;
56373;SDS011;58212;47.034;7.376;2023-09-18T09:40:24;4.20;;;1.70;;
56373;SDS011;58212;47.034;7.376;2023-09-18T09:42:51;2.38;;;1.40;;
56373;SDS011;58212;47.034;7.376;2023-09-18T09:45:25;3.70;;;1.70;;
56373;SDS011;58212;47.034;7.376;2023-09-18T09:47:54;4.88;;;1.90;;
56373;SDS011;58212;47.034;7.376;2023-09-18T09:50:47;3.90;;;1.35;;
56373;SDS011;58212;47.034;7.376;2023-09-18T09:53:17;3.72;;;1.40;;
56373;SDS011;58212;47.034;7.376;2023-09-18T09:55:44;5.20;;;1.77;;
56373;SDS011;58212;47.034;7.376;2023-09-18T09:58:13;3.17;;;1.38;;
56373;SDS011;58212;47.034;7.376;2023-09-18T10:00:41;3.17;;;1.30;;
56373;SDS011;58212;47.034;7.376;2023-09-18T10:03:14;2.60;;;1.40;;
56373;SDS011;58212;47.034;7.376;2023-09-18T10:05:42;5.70;;;1.50;;
56373;SDS011;58212;47.034;7.376;2023-09-18T10:08:11;3.10;;;1.60;;
56373;SDS011;58212;47.034;7.376;2023-09-18T10:10:43;3.95;;;1.60;;
56373;SDS011;58212;47.034;7.376;2023-09-18T10:13:15;5.00;;;1.42;;
56373;SDS011;58212;47.034;7.376;2023-09-18T10:15:44;4.15;;;1.95;;
56373;SDS011;58212;47.034;7.376;2023-09-18T10:18:17;5.30;;;1.70;;
56373;SDS011;58212;47.034;7.376;2023-09-18T10:20:48;2.53;;;1.45;;
56373;SDS011;58212;47.034;7.376;2023-09-18T10:23:21;2.53;;;1.13;;
56373;SDS011;58212;47.034;7.376;2023-09-18T10:25:59;2.75;;;1.50;;
56373;SDS011;58212;47.034;7.376;2023-09-18T10:28:30;1.85;;;1.25;;
56373;SDS011;58212;47.034;7.376;2023-09-18T10:30:58;1.77;;;1.17;;
56373;SDS011;58212;47.034;7.376;2023-09-18T10:33:29;4.65;;;1.67;;
56373;SDS011;58212;47.034;7.376;2023-09-18T10:35:56;1.98;;;1.15;;
56373;SDS011;58212;47.034;7.376;2023-09-18T10:38:27;3.05;;;1.50;;
56373;SDS011;58212;47.034;7.376;2023-09-18T10:40:54;1.67;;;1.05;;
56373;SDS011;58212;47.034;7.376;2023-09-18T10:43:25;2.92;;;1.48;;
56373;SDS011;58212;47.034;7.376;2023-09-18T10:45:52;1.65;;;1.10;;
56373;SDS011;58212;47.034;7.376;2023-09-18T10:48:19;3.42;;;1.30;;
56373;SDS011;58212;47.034;7.376;2023-09-18T10:50:47;2.92;;;1.38;;
56373;SDS011;58212;47.034;7.376;2023-09-18T10:53:14;2.05;;;1.20;;
56373;SDS011;58212;47.034;7.376;2023-09-18T10:55:42;2.90;;;1.30;;
56373;SDS011;58212;47.034;7.376;2023-09-18T10:58:11;2.55;;;1.17;;
56373;SDS011;58212;47.034;7.376;2023-09-18T11:00:41;2.42;;;1.10;;
56373;SDS011;58212;47.034;7.376;2023-09-18T11:03:14;3.13;;;1.20;;
56373;SDS011;58212;47.034;7.376;2023-09-18T11:05:43;1.60;;;1.13;;
56373;SDS011;58212;47.034;7.376;2023-09-18T11:08:27;2.40;;;1.38;;
56373;SDS011;58212;47.034;7.376;2023-09-18T11:10:55;2.33;;;1.17;;
56373;SDS011;58212;47.034;7.376;2023-09-18T11:13:31;2.95;;;1.48;;
56373;SDS011;58212;47.034;7.376;2023-09-18T11:16:03;2.10;;;1.30;;
56373;SDS011;58212;47.034;7.376;2023-09-18T11:18:40;2.70;;;1.23;;
56373;SDS011;58212;47.034;7.376;2023-09-18T11:21:07;1.60;;;1.20;;
56373;SDS011;58212;47.034;7.376;2023-09-18T11:23:35;2.22;;;1.25;;
56373;SDS011;58212;47.034;7.376;2023-09-18T11:26:04;2.58;;;1.50;;
56373;SDS011;58212;47.034;7.376;2023-09-18T11:28:34;2.53;;;1.23;;
56373;SDS011;58212;47.034;7.376;2023-09-18T11:31:03;1.70;;;1.20;;
56373;SDS011;58212;47.034;7.376;2023-09-18T11:33:31;5.22;;;1.40;;
56373;SDS011;58212;47.034;7.376;2023-09-18T11:36:01;3.70;;;1.23;;
56373;SDS011;58212;47.034;7.376;2023-09-18T11:38:32;1.92;;;1.30;;
56373;SDS011;58212;47.034;7.376;2023-09-18T11:41:01;1.52;;;1.10;;
56373;SDS011;58212;47.034;7.376;2023-09-18T11:43:45;3.17;;;1.50;;
56373;SDS011;58212;47.034;7.376;2023-09-18T11:46:14;3.47;;;1.35;;
56373;SDS011;58212;47.034;7.376;2023-09-18T11:48:47;2.15;;;1.10;;
56373;SDS011;58212;47.034;7.376;2023-09-18T11:51:25;1.52;;;1.10;;
56373;SDS011;58212;47.034;7.376;2023-09-18T11:53:54;2.83;;;1.48;;
56373;SDS011;58212;47.034;7.376;2023-09-18T11:56:21;2.45;;;1.35;;
56373;SDS011;58212;47.034;7.376;2023-09-18T11:58:49;2.47;;;1.33;;
56373;SDS011;58212;47.034;7.376;2023-09-18T12:01:20;1.58;;;0.95;;
56373;SDS011;58212;47.034;7.376;2023-09-18T12:03:52;2.35;;;1.15;;
56373;SDS011;58212;47.034;7.376;2023-09-18T12:06:19;3.17;;;1.38;;
56373;SDS011;58212;47.034;7.376;2023-09-18T12:08:47;1.73;;;1.15;;
56373;SDS011;58212;47.034;7.376;2023-09-18T12:11:17;3.08;;;1.30;;
56373;SDS011;58212;47.034;7.376;2023-09-18T12:13:45;2.53;;;1.45;;
56373;SDS011;58212;47.034;7.376;2023-09-18T12:16:14;1.95;;;1.10;;
56373;SDS011;58212;47.034;7.376;2023-09-18T12:18:46;3.38;;;1.35;;
56373;SDS011;58212;47.034;7.376;2023-09-18T12:21:14;2.17;;;1.30;;
56373;SDS011;58212;47.034;7.376;2023-09-18T12:23:43;2.88;;;1.40;;
56373;SDS011;58212;47.034;7.376;2023-09-18T12:26:11;2.63;;;1.30;;
56373;SDS011;58212;47.034;7.376;2023-09-18T12:28:39;2.20;;;1.50;;
56373;SDS011;58212;47.034;7.376;2023-09-18T12:31:10;3.40;;;1.60;;
56373;SDS011;58212;47.034;7.376;2023-09-18T12:33:37;2.67;;;1.25;;
56373;SDS011;58212;47.034;7.376;2023-09-18T12:36:07;4.18;;;1.73;;
56373;SDS011;58212;47.034;7.376;2023-09-18T12:38:34;2.15;;;1.27;;
56373;SDS011;58212;47.034;7.376;2023-09-18T12:41:02;4.80;;;1.30;;
56373;SDS011;58212;47.034;7.376;2023-09-18T12:43:33;3.50;;;1.63;;
56373;SDS011;58212;47.034;7.376;2023-09-18T12:46:02;2.20;;;1.30;;
56373;SDS011;58212;47.034;7.376;2023-09-18T12:48:30;3.20;;;1.45;;
56373;SDS011;58212;47.034;7.376;2023-09-18T12:51:03;2.03;;;1.40;;
56373;SDS011;58212;47.034;7.376;2023-09-18T12:53:32;3.45;;;1.33;;
56373;SDS011;58212;47.034;7.376;2023-09-18T12:56:06;2.15;;;1.45;;
56373;SDS011;58212;47.034;7.376;2023-09-18T12:58:35;4.38;;;1.80;;
56373;SDS011;58212;47.034;7.376;2023-09-18T13:01:05;3.75;;;1.30;;
56373;SDS011;58212;47.034;7.376;2023-09-18T13:03:35;1.98;;;1.30;;
56373;SDS011;58212;47.034;7.376;2023-09-18T13:06:07;1.90;;;1.30;;
56373;SDS011;58212;47.034;7.376;2023-09-18T13:08:40;1.70;;;1.50;;
56373;SDS011;58212;47.034;7.376;2023-09-18T13:11:08;1.88;;;1.50;;
56373;SDS011;58212;47.034;7.376;2023-09-18T13:13:36;3.17;;;1.45;;
56373;SDS011;58212;47.034;7.376;2023-09-18T13:16:04;2.85;;;1.60;;
56373;SDS011;58212;47.034;7.376;2023-09-18T13:18:33;2.92;;;1.42;;
56373;SDS011;58212;47.034;7.376;2023-09-18T13:21:08;2.08;;;1.60;;
56373;SDS011;58212;47.034;7.376;2023-09-18T13:23:36;3.10;;;1.50;;
56373;SDS011;58212;47.034;7.376;2023-09-18T13:26:04;2.65;;;1.65;;
56373;SDS011;58212;47.034;7.376;2023-09-18T13:28:33;2.97;;;1.52;;
56373;SDS011;58212;47.034;7.376;2023-09-18T13:31:01;4.13;;;1.50;;
56373;SDS011;58212;47.034;7.376;2023-09-18T13:33:32;3.05;;;1.67;;
56373;SDS011;58212;47.034;7.376;2023-09-18T13:36:00;3.95;;;1.80;;
56373;SDS011;58212;47.034;7.376;2023-09-18T13:38:28;3.00;;;1.40;;
56373;SDS011;58212;47.034;7.376;2023-09-18T13:40:56;3.92;;;1.50;;
56373;SDS011;58212;47.034;7.376;2023-09-18T13:43:25;2.05;;;1.48;;
56373;SDS011;58212;47.034;7.376;2023-09-18T13:45:53;4.30;;;2.05;;
56373;SDS011;58212;47.034;7.376;2023-09-18T13:48:24;3.55;;;2.20;;
56373;SDS011;58212;47.034;7.376;2023-09-18T13:50:51;3.42;;;2.13;;
56373;SDS011;58212;47.034;7.376;2023-09-18T13:53:18;3.50;;;1.85;;
56373;SDS011;58212;47.034;7.376;2023-09-18T13:55:45;2.97;;;2.17;;
56373;SDS011;58212;47.034;7.376;2023-09-18T13:58:11;4.03;;;1.50;;
56373;SDS011;58212;47.034;7.376;2023-09-18T14:00:39;3.25;;;1.52;;
56373;SDS011;58212;47.034;7.376;2023-09-18T14:03:09;1.98;;;1.70;;
56373;SDS011;58212;47.034;7.376;2023-09-18T14:05:37;2.53;;;1.83;;
56373;SDS011;58212;47.034;7.376;2023-09-18T14:08:04;3.00;;;2.05;;
56373;SDS011;58212;47.034;7.376;2023-09-18T14:10:31;2.55;;;1.98;;
56373;SDS011;58212;47.034;7.376;2023-09-18T14:12:58;2.03;;;1.70;;
56373;SDS011;58212;47.034;7.376;2023-09-18T14:15:25;2.88;;;1.65;;
56373;SDS011;58212;47.034;7.376;2023-09-18T14:17:53;3.35;;;1.70;;
56373;SDS011;58212;47.034;7.376;2023-09-18T14:20:20;2.70;;;1.55;;
56373;SDS011;58212;47.034;7.376;2023-09-18T14:22:48;4.55;;;1.95;;
56373;SDS011;58212;47.034;7.376;2023-09-18T14:25:15;2.65;;;1.48;;
56373;SDS011;58212;47.034;7.376;2023-09-18T14:27:42;2.45;;;2.25;;
56373;SDS011;58212;47.034;7.376;2023-09-18T14:30:09;2.55;;;1.55;;
56373;SDS011;58212;47.034;7.376;2023-09-18T14:32:38;1.77;;;1.25;;
56373;SDS011;58212;47.034;7.376;2023-09-18T14:35:07;1.40;;;1.20;;
56373;SDS011;58212;47.034;7.376;2023-09-18T14:37:35;2.50;;;1.42;;
56373;SDS011;58212;47.034;7.376;2023-09-18T14:40:02;2.25;;;1.50;;
56373;SDS011;58212;47.034;7.376;2023-09-18T14:42:29;3.10;;;1.40;;
56373;SDS011;58212;47.034;7.376;2023-09-18T14:44:56;2.42;;;1.52;;
56373;SDS011;58212;47.034;7.376;2023-09-18T14:47:22;3.63;;;1.58;;
56373;SDS011;58212;47.034;7.376;2023-09-18T14:49:49;3.42;;;2.88;;
56373;SDS011;58212;47.034;7.376;2023-09-18T14:52:17;3.45;;;1.70;;
56373;SDS011;58212;47.034;7.376;2023-09-18T14:54:49;2.10;;;1.58;;
56373;SDS011;58212;47.034;7.376;2023-09-18T14:57:16;2.33;;;1.67;;